Time;durP1;ratioP1;P1;durP2;ratioP2;P2;SDS_P1;SDS_P2;PMS_P1;PMS_P2;Temp;Humidity;BMP_temperature;BMP_pressure;BME280_temperature;BME280_humidity;BME280_pressure;Samples;Min_cycle;Max_cycle;Signal;HPM_P1;HPM_P2
2020/12/06 00:06:59;;;;;;;18.98;9.98;;;3.40;99.90;;;;;;6651420;89;20206;-77
2020/12/06 00:16:59;;;;;;;18.02;10.15;;;3.30;99.90;;;;;;6666196;88;20208;-77
2020/12/06 00:27:00;;;;;;;20.97;10.03;;;3.20;99.90;;;;;;6647566;89;20380;-78
2020/12/06 00:37:00;;;;;;;17.90;10.43;;;3.00;99.90;;;;;;6648619;89;21185;-77
2020/12/06 00:47:01;;;;;;;18.30;9.55;;;3.00;99.90;;;;;;6649084;89;20213;-77
2020/12/06 00:57:01;;;;;;;19.55;10.52;;;3.00;99.90;;;;;;6649964;89;20247;-77
2020/12/06 01:07:02;;;;;;;18.05;9.90;;;3.00;99.90;;;;;;6695299;88;20201;-77
2020/12/06 01:17:02;;;;;;;17.80;10.20;;;2.90;99.90;;;;;;6654403;88;20185;-78
2020/12/06 01:27:03;;;;;;;17.60;9.88;;;2.90;99.90;;;;;;6650156;89;20528;-78
2020/12/06 01:37:03;;;;;;;19.67;9.55;;;3.00;99.90;;;;;;6664225;88;20717;-78
2020/12/06 01:47:04;;;;;;;18.42;10.02;;;3.00;99.90;;;;;;6650497;89;20215;-78
2020/12/06 01:57:05;;;;;;;17.70;9.45;;;3.00;99.90;;;;;;6650213;89;20199;-78
2020/12/06 02:07:06;;;;;;;16.83;9.65;;;3.20;99.90;;;;;;6685823;77;20655;-73
2020/12/06 02:17:06;;;;;;;18.80;10.00;;;3.10;99.90;;;;;;6701615;88;20192;-73
2020/12/06 02:27:07;;;;;;;17.95;9.82;;;3.20;99.90;;;;;;6713997;88;20173;-74
2020/12/06 02:37:07;;;;;;;20.35;9.73;;;3.30;99.90;;;;;;6708831;88;20310;-74
2020/12/06 02:47:08;;;;;;;18.73;10.27;;;3.40;99.90;;;;;;6714237;88;20220;-75
2020/12/06 02:57:08;;;;;;;20.20;10.77;;;3.50;99.90;;;;;;6705686;88;20204;-74
2020/12/06 03:07:09;;;;;;;19.15;10.75;;;3.40;99.90;;;;;;6669394;88;20213;-73
2020/12/06 03:17:09;;;;;;;18.92;10.48;;;3.60;99.90;;;;;;6713474;88;20354;-73
2020/12/06 03:27:10;;;;;;;19.05;10.57;;;3.40;99.90;;;;;;6717556;88;20274;-75
2020/12/06 03:37:11;;;;;;;19.83;10.00;;;3.40;99.90;;;;;;6727471;88;20191;-74
2020/12/06 03:47:11;;;;;;;21.92;11.12;;;3.40;99.90;;;;;;6715250;88;20235;-74
2020/12/06 03:57:12;;;;;;;18.77;10.20;;;3.30;99.90;;;;;;6723685;88;20240;-74
2020/12/06 04:07:12;;;;;;;18.25;10.73;;;3.20;99.90;;;;;;6708574;88;20229;-74
2020/12/06 04:17:13;;;;;;;19.08;10.32;;;3.30;99.90;;;;;;6714926;88;20618;-74
2020/12/06 04:27:14;;;;;;;18.85;10.27;;;3.30;99.90;;;;;;6711086;88;20637;-74
2020/12/06 04:37:14;;;;;;;19.23;10.52;;;3.30;99.90;;;;;;6710942;88;20235;-75
2020/12/06 04:47:30;;;;;;;19.37;10.50;;;3.30;99.90;;;;;;6714628;88;20308;-75
2020/12/06 04:57:33;;;;;;;20.98;10.95;;;3.20;99.90;;;;;;6713807;88;20314;-75
2020/12/06 05:07:37;;;;;;;19.75;10.55;;;3.30;99.90;;;;;;6715170;88;20213;-75
2020/12/06 05:17:38;;;;;;;19.23;10.10;;;3.30;99.90;;;;;;6628768;88;20181;-76
2020/12/06 05:27:39;;;;;;;17.70;9.90;;;3.40;99.90;;;;;;6627808;88;20201;-75
2020/12/06 05:37:42;;;;;;;18.15;10.07;;;3.40;99.90;;;;;;6705339;88;20306;-75
2020/12/06 05:47:42;;;;;;;16.65;9.80;;;3.60;99.90;;;;;;6643921;88;20309;-75
2020/12/06 05:57:43;;;;;;;22.23;10.50;;;3.60;99.90;;;;;;6714288;88;20179;-75
2020/12/06 06:07:47;;;;;;;19.23;10.48;;;3.60;99.90;;;;;;6690600;88;20251;-75
2020/12/06 06:17:49;;;;;;;20.67;10.48;;;3.60;99.90;;;;;;6712496;88;20202;-76
2020/12/06 06:27:51;;;;;;;19.55;10.63;;;3.60;99.90;;;;;;6707121;88;20233;-75
2020/12/06 06:37:52;;;;;;;19.30;10.65;;;3.50;99.90;;;;;;6716305;88;20202;-76
2020/12/06 06:47:54;;;;;;;21.25;10.50;;;3.40;99.90;;;;;;6711654;88;20188;-76
2020/12/06 06:57:56;;;;;;;20.88;10.30;;;3.40;99.90;;;;;;6713187;88;20222;-76
2020/12/06 07:07:58;;;;;;;21.70;10.77;;;3.50;99.90;;;;;;6713778;88;20194;-76
2020/12/06 07:17:58;;;;;;;20.17;10.85;;;3.40;99.90;;;;;;6713417;88;20317;-75
2020/12/06 07:27:59;;;;;;;23.67;11.75;;;3.40;99.90;;;;;;6712017;88;20229;-73
2020/12/06 07:38:00;;;;;;;21.90;11.93;;;3.40;99.90;;;;;;6709027;88;20677;-75
2020/12/06 07:48:00;;;;;;;20.95;11.07;;;3.40;99.90;;;;;;6711460;88;20530;-77
2020/12/06 07:58:06;;;;;;;22.67;11.65;;;3.60;99.90;;;;;;6723479;88;20320;-76
2020/12/06 08:08:12;;;;;;;23.40;11.83;;;3.70;99.90;;;;;;6703143;88;20739;-76
2020/12/06 08:18:14;;;;;;;22.07;12.37;;;3.70;99.90;;;;;;6709365;88;20200;-78
2020/12/06 08:28:21;;;;;;;23.12;11.88;;;3.60;99.90;;;;;;6700806;88;20275;-77
2020/12/06 08:38:22;;;;;;;25.20;12.48;;;3.80;99.90;;;;;;6710762;88;20606;-76
2020/12/06 08:48:29;;;;;;;25.65;12.07;;;3.90;99.90;;;;;;6717524;88;20239;-75
2020/12/06 08:58:32;;;;;;;21.73;11.68;;;4.00;99.90;;;;;;6724394;88;20687;-77
2020/12/06 09:08:33;;;;;;;21.27;11.12;;;4.10;99.90;;;;;;6721590;88;20216;-78
2020/12/06 09:18:33;;;;;;;21.92;12.18;;;4.20;99.90;;;;;;6718398;88;20197;-74
2020/12/06 09:28:34;;;;;;;22.30;11.90;;;4.30;99.90;;;;;;6713379;88;20191;-75
2020/12/06 09:38:35;;;;;;;21.48;11.48;;;4.20;99.90;;;;;;6712260;88;20197;-77
2020/12/06 09:48:35;;;;;;;22.75;11.98;;;4.20;99.90;;;;;;6690937;88;20209;-75
2020/12/06 09:58:36;;;;;;;22.62;12.48;;;4.20;99.90;;;;;;6712469;88;20228;-75
2020/12/06 10:08:36;;;;;;;22.58;12.25;;;4.40;99.90;;;;;;6712447;88;20206;-75
2020/12/06 10:18:37;;;;;;;23.75;12.43;;;4.40;99.90;;;;;;6715088;88;20405;-76
2020/12/06 10:28:38;;;;;;;26.02;13.00;;;4.80;99.90;;;;;;6712900;88;20206;-76
2020/12/06 10:38:38;;;;;;;23.73;12.63;;;4.90;99.90;;;;;;6709192;88;20205;-77
2020/12/06 10:48:39;;;;;;;21.87;12.13;;;5.00;99.90;;;;;;6713804;88;20802;-77
2020/12/06 10:58:39;;;;;;;22.10;11.35;;;5.30;99.90;;;;;;6718688;88;20704;-78
2020/12/06 11:08:43;;;;;;;22.45;12.20;;;5.40;99.90;;;;;;6718703;88;20331;-78
2020/12/06 11:18:44;;;;;;;20.15;11.02;;;5.40;99.90;;;;;;6708643;88;20811;-80
2020/12/06 11:28:45;;;;;;;20.77;10.77;;;5.40;99.90;;;;;;6712709;88;20342;-77
2020/12/06 11:38:46;;;;;;;18.83;10.27;;;5.30;99.90;;;;;;6718466;88;20201;-77
2020/12/06 11:48:46;;;;;;;17.50;10.07;;;5.30;99.90;;;;;;6719157;88;22205;-78
2020/12/06 11:58:52;;;;;;;20.23;10.75;;;5.30;99.90;;;;;;6714863;88;20193;-77
2020/12/06 12:08:54;;;;;;;21.15;10.63;;;5.30;99.90;;;;;;6656927;88;20554;-75
2020/12/06 12:18:54;;;;;;;20.73;10.63;;;5.30;99.90;;;;;;6710667;88;20190;-77
2020/12/06 12:28:55;;;;;;;19.92;10.30;;;5.40;99.90;;;;;;6721955;88;20321;-77
2020/12/06 12:38:56;;;;;;;20.08;9.88;;;5.40;99.90;;;;;;6714094;88;20223;-77
2020/12/06 12:48:56;;;;;;;19.55;10.75;;;5.50;99.90;;;;;;6719725;88;20989;-77
2020/12/06 12:58:57;;;;;;;24.17;11.70;;;5.50;99.90;;;;;;6714513;88;20209;-76
2020/12/06 13:08:57;;;;;;;23.40;11.70;;;5.50;99.90;;;;;;6708590;88;20190;-77
2020/12/06 13:18:58;;;;;;;24.87;12.77;;;5.50;99.90;;;;;;6710745;88;20264;-77
2020/12/06 13:28:59;;;;;;;24.20;12.37;;;5.40;99.90;;;;;;6710830;88;20198;-76
2020/12/06 13:38:59;;;;;;;24.73;12.48;;;5.50;99.90;;;;;;6720029;88;20302;-76
2020/12/06 13:49:00;;;;;;;24.58;12.82;;;5.30;99.90;;;;;;6718969;88;20225;-77
2020/12/06 13:59:00;;;;;;;20.33;11.35;;;5.30;99.90;;;;;;6632026;88;20228;-76
2020/12/06 14:09:01;;;;;;;23.15;11.38;;;5.20;99.90;;;;;;6657576;88;20360;-75
2020/12/06 14:19:01;;;;;;;24.00;12.55;;;5.10;99.90;;;;;;6733643;88;20209;-76
2020/12/06 14:29:02;;;;;;;24.85;12.35;;;5.00;99.90;;;;;;6736238;88;20196;-75
2020/12/06 14:39:04;;;;;;;20.37;10.98;;;4.90;99.90;;;;;;6708395;88;20207;-77
2020/12/06 14:49:04;;;;;;;24.27;11.48;;;4.90;99.90;;;;;;6692513;88;20209;-76
2020/12/06 14:59:05;;;;;;;27.70;13.13;;;4.90;99.90;;;;;;6720894;88;20200;-76
2020/12/06 15:09:07;;;;;;;27.75;12.50;;;4.90;99.90;;;;;;6713581;88;20288;-77
2020/12/06 15:19:08;;;;;;;28.50;13.52;;;4.90;99.90;;;;;;6706044;88;20219;-76
2020/12/06 15:29:08;;;;;;;31.67;14.68;;;4.80;99.90;;;;;;6704110;88;20219;-76
2020/12/06 15:39:09;;;;;;;33.72;16.85;;;4.80;99.90;;;;;;6707879;88;20246;-76
2020/12/06 15:49:09;;;;;;;32.45;16.20;;;4.80;99.90;;;;;;6709377;88;20209;-76
2020/12/06 15:59:10;;;;;;;35.80;17.40;;;4.80;99.90;;;;;;6717639;88;20201;-77
2020/12/06 16:09:10;;;;;;;37.58;17.65;;;4.70;99.90;;;;;;6708005;88;20316;-76
2020/12/06 16:19:11;;;;;;;39.10;18.23;;;5.00;99.90;;;;;;6694529;88;20197;-77
2020/12/06 16:29:11;;;;;;;37.00;17.37;;;4.90;99.90;;;;;;6672690;88;20321;-77
2020/12/06 16:39:12;;;;;;;43.38;18.87;;;4.90;99.90;;;;;;6718191;88;20209;-75
2020/12/06 16:49:12;;;;;;;47.85;20.37;;;4.80;99.90;;;;;;6722335;88;20488;-76
2020/12/06 16:59:13;;;;;;;49.53;20.37;;;4.70;99.90;;;;;;6724539;88;20263;-76
2020/12/06 17:09:13;;;;;;;53.22;21.90;;;4.80;99.90;;;;;;6728589;88;20211;-77
2020/12/06 17:19:14;;;;;;;57.20;22.42;;;4.70;99.90;;;;;;6724495;88;20189;-79
2020/12/06 17:29:14;;;;;;;54.30;22.65;;;4.70;99.90;;;;;;6727445;88;20185;-77
2020/12/06 17:39:15;;;;;;;57.75;23.38;;;4.70;99.90;;;;;;6722016;88;20165;-78
2020/12/06 17:49:16;;;;;;;67.12;25.67;;;4.60;99.90;;;;;;6723844;88;20212;-78
2020/12/06 17:59:16;;;;;;;63.28;26.58;;;4.60;99.90;;;;;;6731233;88;20235;-77
2020/12/06 18:09:18;;;;;;;58.70;23.80;;;4.50;99.90;;;;;;6712062;88;20221;-78
2020/12/06 18:19:19;;;;;;;60.85;25.30;;;4.70;99.90;;;;;;6686960;88;21084;-78
2020/12/06 18:29:20;;;;;;;63.97;25.98;;;4.60;99.90;;;;;;6707415;88;20230;-78
2020/12/06 18:39:21;;;;;;;57.43;25.43;;;4.40;99.90;;;;;;6707607;88;20213;-77
2020/12/06 18:49:22;;;;;;;56.97;23.40;;;4.50;99.90;;;;;;6713098;88;20517;-76
2020/12/06 18:59:22;;;;;;;52.42;24.00;;;4.50;99.90;;;;;;6717004;88;20323;-77
2020/12/06 19:09:23;;;;;;;55.78;24.12;;;4.50;99.90;;;;;;6696695;88;20356;-76
2020/12/06 19:19:24;;;;;;;54.83;23.33;;;4.60;99.90;;;;;;6712575;88;20641;-77
2020/12/06 19:29:25;;;;;;;62.97;23.77;;;4.50;99.90;;;;;;6707258;88;20214;-78
2020/12/06 19:39:25;;;;;;;56.45;23.00;;;4.40;99.90;;;;;;6723163;88;20215;-78
2020/12/06 19:49:26;;;;;;;63.40;24.98;;;4.30;99.90;;;;;;6683203;88;20263;-81
2020/12/06 19:59:27;;;;;;;52.38;21.25;;;4.20;99.90;;;;;;6724851;88;20352;-79
2020/12/06 20:09:27;;;;;;;52.60;21.83;;;4.40;99.90;;;;;;6731086;88;20297;-79
2020/12/06 20:19:29;;;;;;;44.92;19.50;;;4.40;99.90;;;;;;6730245;88;20260;-79
2020/12/06 20:29:29;;;;;;;39.45;17.30;;;4.40;99.90;;;;;;6643137;88;20474;-78
2020/12/06 20:39:30;;;;;;;40.60;17.12;;;4.40;99.90;;;;;;6677385;88;20182;-78
2020/12/06 20:49:33;;;;;;;41.75;17.83;;;4.50;99.90;;;;;;6699368;88;20224;-78
2020/12/06 20:59:34;;;;;;;40.97;17.83;;;4.40;99.90;;;;;;6713874;88;20527;-77
2020/12/06 21:09:34;;;;;;;46.63;18.77;;;4.40;99.90;;;;;;6716536;88;20216;-79
2020/12/06 21:19:35;;;;;;;46.53;19.45;;;4.30;99.90;;;;;;6724847;88;20215;-79
2020/12/06 21:29:36;;;;;;;52.72;20.48;;;4.20;99.90;;;;;;6734831;88;20213;-77
2020/12/06 21:39:36;;;;;;;39.70;16.67;;;4.30;99.90;;;;;;6673328;88;20260;-80
2020/12/06 21:49:37;;;;;;;38.58;17.83;;;4.20;99.90;;;;;;6662239;89;20764;-81
2020/12/06 21:59:39;;;;;;;39.80;18.10;;;4.20;99.90;;;;;;6660848;89;20582;-80
2020/12/06 22:09:39;;;;;;;40.45;19.10;;;4.10;99.90;;;;;;6711536;88;20177;-80
2020/12/06 22:19:40;;;;;;;46.90;19.83;;;4.10;99.90;;;;;;6645244;88;20314;-80
2020/12/06 22:29:41;;;;;;;48.40;20.42;;;4.10;99.90;;;;;;6626946;89;20228;-80
2020/12/06 22:39:41;;;;;;;44.95;20.52;;;4.10;99.90;;;;;;6626023;89;20569;-82
2020/12/06 22:49:43;;;;;;;48.03;21.20;;;4.00;99.90;;;;;;6626971;89;20228;-80
2020/12/06 22:59:44;;;;;;;52.72;19.98;;;4.10;99.90;;;;;;6714196;88;20484;-82
2020/12/06 23:09:44;;;;;;;49.42;21.35;;;4.00;99.90;;;;;;6713070;88;20279;-81
2020/12/06 23:19:45;;;;;;;54.50;21.27;;;4.10;99.90;;;;;;6710434;88;20248;-81
2020/12/06 23:29:45;;;;;;;48.85;20.20;;;4.00;99.90;;;;;;6718456;88;20204;-80
2020/12/06 23:39:46;;;;;;;42.72;18.25;;;4.10;99.90;;;;;;6717036;88;20570;-80
2020/12/06 23:49:46;;;;;;;41.27;17.07;;;4.10;99.90;;;;;;6718554;88;20178;-81
2020/12/06 23:59:47;;;;;;;42.62;16.98;;;4.00;99.90;;;;;;6715742;88;20500;-81
